Time;durP1;ratioP1;P1;durP2;ratioP2;P2;SDS_P1;SDS_P2;PMS_P1;PMS_P2;Temp;Humidity;BMP_temperature;BMP_pressure;BME280_temperature;BME280_humidity;BME280_pressure;Samples;Min_cycle;Max_cycle;Signal;HPM_P1;HPM_P2
2023/07/15 00:00:53;;;;;;;7.22;3.50;;;19.70;99.90;;;;;;5079306;28;20091;-74
2023/07/15 00:03:20;;;;;;;6.40;3.78;;;19.70;99.90;;;;;;5083938;28;20056;-75
2023/07/15 00:05:47;;;;;;;8.38;3.58;;;19.70;99.90;;;;;;5076212;28;20125;-75
2023/07/15 00:08:13;;;;;;;10.88;3.65;;;19.70;99.90;;;;;;5079878;28;20044;-75
2023/07/15 00:10:45;;;;;;;8.38;3.60;;;19.70;99.90;;;;;;5081802;28;20040;-76
2023/07/15 00:13:16;;;;;;;7.70;3.72;;;19.70;99.90;;;;;;5080072;28;20169;-75
2023/07/15 00:15:44;;;;;;;8.05;3.85;;;19.60;99.90;;;;;;5079697;28;20048;-75
2023/07/15 00:18:11;;;;;;;6.78;3.70;;;19.60;99.90;;;;;;5077949;28;20059;-75
2023/07/15 00:20:37;;;;;;;8.65;3.80;;;19.60;99.90;;;;;;5078526;28;20165;-76
2023/07/15 00:23:24;;;;;;;8.93;4.05;;;19.60;99.90;;;;;;5067996;28;20040;-77
2023/07/15 00:25:50;;;;;;;8.52;3.60;;;19.60;99.90;;;;;;5083966;28;20051;-75
2023/07/15 00:28:21;;;;;;;6.78;3.75;;;19.60;99.90;;;;;;5082859;28;20055;-75
2023/07/15 00:30:50;;;;;;;7.30;3.35;;;19.60;99.90;;;;;;5078125;28;20071;-76
2023/07/15 00:33:16;;;;;;;7.55;3.67;;;19.60;99.90;;;;;;5084701;28;20123;-75
2023/07/15 00:35:43;;;;;;;7.60;3.20;;;19.50;99.90;;;;;;5062848;28;20048;-74
2023/07/15 00:38:12;;;;;;;7.32;3.47;;;19.60;99.90;;;;;;5078037;28;20505;-75
2023/07/15 00:40:43;;;;;;;7.38;3.50;;;19.60;99.90;;;;;;5064020;28;20032;-75
2023/07/15 00:43:47;;;;;;;7.80;3.47;;;19.50;99.90;;;;;;5067663;28;20111;-75
2023/07/15 00:46:19;;;;;;;11.43;3.53;;;19.50;99.90;;;;;;5074850;28;20787;-76
2023/07/15 00:49:01;;;;;;;8.35;3.30;;;19.50;99.90;;;;;;5079670;28;20052;-76
2023/07/15 00:51:30;;;;;;;11.43;3.42;;;19.60;99.90;;;;;;5058330;28;20127;-75
2023/07/15 00:53:56;;;;;;;10.25;3.58;;;19.60;99.90;;;;;;5075798;28;20047;-75
2023/07/15 00:56:24;;;;;;;7.05;3.20;;;19.60;99.90;;;;;;5075902;28;20146;-75
2023/07/15 00:58:50;;;;;;;10.82;3.80;;;19.60;99.90;;;;;;5076336;28;20420;-75
2023/07/15 01:01:17;;;;;;;8.57;3.35;;;19.60;99.90;;;;;;5077276;28;20834;-75
2023/07/15 01:03:44;;;;;;;10.57;3.80;;;19.50;99.90;;;;;;5068142;28;20054;-75
2023/07/15 01:06:13;;;;;;;7.05;3.08;;;19.60;99.90;;;;;;5061802;28;20047;-76
2023/07/15 01:08:39;;;;;;;7.55;3.42;;;19.60;99.90;;;;;;5061213;28;20059;-75
2023/07/15 01:11:10;;;;;;;6.30;3.13;;;19.60;99.90;;;;;;5085698;28;20047;-75
2023/07/15 01:13:36;;;;;;;13.10;3.77;;;19.60;99.90;;;;;;5055043;28;20188;-75
2023/07/15 01:16:02;;;;;;;7.93;2.95;;;19.60;99.90;;;;;;5074581;28;20858;-75
2023/07/15 01:18:28;;;;;;;9.60;3.20;;;19.60;99.90;;;;;;5085801;28;20106;-75
2023/07/15 01:20:58;;;;;;;6.40;3.10;;;19.60;99.90;;;;;;5080715;28;20039;-72
2023/07/15 01:23:24;;;;;;;6.82;3.05;;;19.60;99.90;;;;;;5076377;28;20504;-72
2023/07/15 01:25:50;;;;;;;7.40;2.67;;;19.60;99.90;;;;;;5076149;28;20050;-73
2023/07/15 01:28:16;;;;;;;6.35;2.92;;;19.70;99.90;;;;;;5072957;28;20032;-72
2023/07/15 01:30:41;;;;;;;7.18;3.45;;;19.60;99.90;;;;;;5054539;28;20689;-72
2023/07/15 01:33:07;;;;;;;6.80;2.95;;;19.70;99.90;;;;;;5079594;28;20052;-72
2023/07/15 01:35:33;;;;;;;10.70;3.05;;;19.70;99.90;;;;;;5072802;28;20050;-73
2023/07/15 01:37:59;;;;;;;10.65;2.90;;;19.70;99.90;;;;;;5080829;28;20040;-72
2023/07/15 01:40:24;;;;;;;5.45;2.50;;;19.70;99.90;;;;;;5064803;28;20111;-70
2023/07/15 01:42:50;;;;;;;7.50;2.80;;;19.70;99.90;;;;;;5073889;28;20625;-72
2023/07/15 01:45:16;;;;;;;8.02;3.30;;;19.80;99.90;;;;;;5061077;28;20044;-73
2023/07/15 01:47:42;;;;;;;6.07;2.72;;;19.80;99.90;;;;;;5079507;28;20134;-72
2023/07/15 01:50:08;;;;;;;5.47;2.42;;;19.80;99.90;;;;;;5082282;28;20124;-73
2023/07/15 01:52:34;;;;;;;7.50;2.95;;;19.80;99.90;;;;;;5062775;28;20408;-73
2023/07/15 01:55:00;;;;;;;10.35;2.72;;;19.90;99.90;;;;;;5063192;28;20051;-73
2023/07/15 01:57:26;;;;;;;6.20;2.40;;;19.90;99.90;;;;;;5072443;28;20044;-72
2023/07/15 01:59:57;;;;;;;6.32;2.40;;;19.90;99.90;;;;;;5067219;28;20052;-72
2023/07/15 02:02:23;;;;;;;;;;;19.90;99.90;;;;;;5062298;28;20063;-73
2023/07/15 02:04:49;;;;;;;8.65;2.70;;;19.90;99.90;;;;;;5088729;28;19920;-72
2023/07/15 02:07:15;;;;;;;6.57;2.80;;;19.90;99.90;;;;;;5055115;28;20089;-73
2023/07/15 02:09:40;;;;;;;6.15;2.42;;;19.90;99.90;;;;;;5089013;28;20118;-73
2023/07/15 02:12:07;;;;;;;6.43;2.58;;;19.90;99.90;;;;;;5088003;28;20055;-74
2023/07/15 02:14:33;;;;;;;8.00;2.70;;;19.90;99.90;;;;;;5080921;28;20032;-74
2023/07/15 02:16:58;;;;;;;6.55;2.40;;;19.90;99.90;;;;;;5061877;28;20386;-73
2023/07/15 02:19:24;;;;;;;6.53;2.33;;;19.90;99.90;;;;;;5085965;28;20040;-73
2023/07/15 02:21:50;;;;;;;7.47;2.65;;;19.90;99.90;;;;;;5079752;28;20802;-73
2023/07/15 02:24:16;;;;;;;7.82;2.63;;;19.90;99.90;;;;;;5086514;28;20051;-72
2023/07/15 02:26:42;;;;;;;6.20;2.35;;;20.00;99.90;;;;;;5084628;28;20043;-72
2023/07/15 02:29:07;;;;;;;6.25;2.58;;;19.90;99.90;;;;;;5078244;28;20044;-72
2023/07/15 02:31:34;;;;;;;8.38;2.20;;;20.00;99.90;;;;;;5074618;28;20035;-73
2023/07/15 02:34:00;;;;;;;8.90;2.45;;;20.00;99.90;;;;;;5075317;28;20052;-74
2023/07/15 02:36:26;;;;;;;8.10;2.40;;;20.00;99.90;;;;;;5086987;28;20855;-72
2023/07/15 02:38:52;;;;;;;4.95;2.30;;;20.00;99.90;;;;;;5081953;28;20044;-72
2023/07/15 02:41:17;;;;;;;7.03;2.85;;;20.00;99.90;;;;;;5089350;28;20036;-72
2023/07/15 02:43:43;;;;;;;7.15;2.33;;;20.00;99.90;;;;;;5079194;28;20086;-72
2023/07/15 02:46:10;;;;;;;9.88;2.47;;;20.00;99.90;;;;;;5078939;28;20067;-72
2023/07/15 02:48:36;;;;;;;7.72;2.47;;;20.00;99.90;;;;;;5061529;28;20451;-74
2023/07/15 02:51:02;;;;;;;7.78;2.28;;;20.00;99.90;;;;;;5080751;28;20052;-73
2023/07/15 02:53:28;;;;;;;6.88;2.25;;;20.00;99.90;;;;;;5089299;28;20485;-73
2023/07/15 02:55:54;;;;;;;9.02;2.50;;;20.00;99.90;;;;;;5061812;28;20524;-72
2023/07/15 02:58:21;;;;;;;7.63;2.45;;;20.00;99.90;;;;;;5088227;28;20467;-73
2023/07/15 03:00:56;;;;;;;5.13;2.22;;;20.00;99.90;;;;;;5088318;28;20144;-73
2023/07/15 03:03:22;;;;;;;6.13;2.38;;;20.00;99.90;;;;;;5078932;28;20390;-73
2023/07/15 03:05:51;;;;;;;6.20;2.03;;;20.00;99.90;;;;;;5073490;28;20059;-73
2023/07/15 03:08:17;;;;;;;5.78;2.35;;;20.00;99.90;;;;;;5085223;28;20079;-73
2023/07/15 03:10:44;;;;;;;7.38;2.25;;;20.00;99.90;;;;;;5084196;28;20079;-72
2023/07/15 03:13:10;;;;;;;6.32;2.22;;;20.00;99.90;;;;;;5065351;28;20035;-73
2023/07/15 03:15:36;;;;;;;8.32;2.50;;;20.00;99.90;;;;;;5078881;28;20204;-73
2023/07/15 03:18:03;;;;;;;8.02;2.15;;;20.00;99.90;;;;;;5070672;28;20051;-72
2023/07/15 03:20:30;;;;;;;8.20;2.70;;;20.00;99.90;;;;;;5088540;28;20127;-73
2023/07/15 03:22:56;;;;;;;8.45;2.28;;;20.00;99.90;;;;;;5060247;28;20106;-72
2023/07/15 03:25:22;;;;;;;9.68;2.70;;;20.00;99.90;;;;;;5088219;28;20054;-72
2023/07/15 03:27:49;;;;;;;9.93;3.08;;;20.00;99.90;;;;;;5081718;28;20951;-72
2023/07/15 03:30:15;;;;;;;9.63;2.50;;;20.00;99.90;;;;;;5088352;28;20436;-72
2023/07/15 03:32:41;;;;;;;7.45;2.15;;;20.00;99.90;;;;;;5089006;28;20044;-72
2023/07/15 03:35:14;;;;;;;6.97;2.50;;;20.00;99.90;;;;;;5086993;28;20519;-73
2023/07/15 03:37:42;;;;;;;6.03;2.67;;;20.00;99.90;;;;;;5083298;28;20523;-72
2023/07/15 03:40:10;;;;;;;10.38;2.40;;;20.00;99.90;;;;;;5086097;28;20040;-72
2023/07/15 03:42:39;;;;;;;6.57;2.50;;;20.00;99.90;;;;;;5086958;28;20051;-74
2023/07/15 03:45:06;;;;;;;8.63;2.90;;;20.00;99.90;;;;;;5072231;28;20051;-72
2023/07/15 03:47:34;;;;;;;7.13;2.60;;;20.00;99.90;;;;;;5082660;28;20047;-73
2023/07/15 03:50:04;;;;;;;6.15;2.35;;;19.90;99.90;;;;;;5076341;28;20591;-72
2023/07/15 03:52:30;;;;;;;6.90;2.30;;;20.00;99.90;;;;;;5080398;28;20127;-72
2023/07/15 03:54:56;;;;;;;9.95;2.88;;;19.90;99.90;;;;;;5074489;28;20489;-72
2023/07/15 03:57:22;;;;;;;8.90;2.78;;;19.90;99.90;;;;;;5073804;28;20048;-72
2023/07/15 03:59:48;;;;;;;6.70;2.35;;;19.90;99.90;;;;;;5073769;28;20040;-72
2023/07/15 04:02:14;;;;;;;5.32;2.30;;;19.90;99.90;;;;;;5074399;28;20044;-72
2023/07/15 04:04:40;;;;;;;5.95;2.22;;;19.80;99.90;;;;;;5056078;28;20949;-72
2023/07/15 04:07:06;;;;;;;6.20;2.33;;;19.80;99.90;;;;;;5085885;28;20917;-72
2023/07/15 04:09:31;;;;;;;7.05;2.40;;;19.80;99.90;;;;;;5074791;28;20139;-72
2023/07/15 04:11:57;;;;;;;11.52;2.75;;;19.80;99.90;;;;;;5075480;28;20119;-72
2023/07/15 04:14:23;;;;;;;6.13;2.30;;;19.80;99.90;;;;;;5084341;28;20534;-72
2023/07/15 04:16:48;;;;;;;6.95;2.40;;;19.80;99.90;;;;;;5074218;28;20114;-72
2023/07/15 04:19:14;;;;;;;6.65;2.60;;;19.80;99.90;;;;;;5077374;28;20114;-72
2023/07/15 04:21:40;;;;;;;7.60;2.35;;;19.80;99.90;;;;;;5084058;28;20085;-71
2023/07/15 04:24:06;;;;;;;6.88;2.25;;;19.70;99.90;;;;;;5055715;28;20062;-71
2023/07/15 04:26:31;;;;;;;10.25;2.83;;;19.80;99.90;;;;;;5084333;28;20165;-71
2023/07/15 04:28:58;;;;;;;9.45;2.70;;;19.70;99.90;;;;;;5083753;28;20522;-72
2023/07/15 04:31:24;;;;;;;6.65;2.35;;;19.80;99.90;;;;;;5080776;28;20046;-72
2023/07/15 04:33:51;;;;;;;7.43;2.35;;;19.70;99.90;;;;;;5086154;28;20591;-72
2023/07/15 04:36:21;;;;;;;11.20;2.92;;;19.80;99.90;;;;;;5078891;28;20763;-72
2023/07/15 04:38:47;;;;;;;9.32;2.33;;;19.70;99.90;;;;;;5081099;28;20603;-72
2023/07/15 04:41:14;;;;;;;7.95;2.33;;;19.80;99.90;;;;;;5079124;28;20051;-72
2023/07/15 04:43:40;;;;;;;7.28;2.30;;;20.00;99.90;;;;;;5083406;28;20044;-72
2023/07/15 04:46:06;;;;;;;8.13;2.65;;;20.20;99.90;;;;;;5072611;28;20039;-72
2023/07/15 04:48:33;;;;;;;9.38;2.53;;;20.50;99.90;;;;;;5086824;28;20109;-72
2023/07/15 04:50:59;;;;;;;8.93;2.58;;;20.70;99.90;;;;;;5075741;28;20044;-72
2023/07/15 04:53:25;;;;;;;9.85;2.40;;;20.90;99.90;;;;;;5086034;28;20512;-72
2023/07/15 04:55:51;;;;;;;6.32;2.47;;;21.20;99.90;;;;;;5079508;28;20044;-72
2023/07/15 04:58:18;;;;;;;6.25;2.20;;;21.40;99.90;;;;;;5074533;28;20047;-72
2023/07/15 05:00:45;;;;;;;6.25;2.03;;;21.50;99.90;;;;;;5082375;28;20087;-72
2023/07/15 05:03:12;;;;;;;7.47;2.50;;;21.40;99.90;;;;;;5074133;28;20047;-73
2023/07/15 05:05:39;;;;;;;5.25;2.33;;;21.40;99.90;;;;;;5071691;28;20078;-72
2023/07/15 05:08:17;;;;;;;11.30;2.25;;;21.50;99.90;;;;;;5067485;28;20039;-73
2023/07/15 05:10:45;;;;;;;6.15;2.40;;;21.60;99.90;;;;;;5083495;28;20040;-72
2023/07/15 05:13:11;;;;;;;6.63;2.35;;;21.90;99.90;;;;;;5055308;28;20413;-72
2023/07/15 05:15:38;;;;;;;8.68;2.35;;;22.20;99.90;;;;;;5086766;28;20040;-72
2023/07/15 05:18:04;;;;;;;7.63;2.47;;;22.40;99.90;;;;;;5075168;28;20063;-72
2023/07/15 05:20:31;;;;;;;11.65;2.70;;;22.60;99.90;;;;;;5082439;28;20111;-72
2023/07/15 05:22:57;;;;;;;6.57;2.20;;;22.80;99.90;;;;;;5082999;28;20036;-72
2023/07/15 05:25:23;;;;;;;6.93;2.33;;;23.00;99.90;;;;;;5077453;28;20115;-73
2023/07/15 05:27:49;;;;;;;5.35;2.35;;;23.20;99.90;;;;;;5068525;28;20044;-72
2023/07/15 05:30:15;;;;;;;7.88;2.40;;;23.20;99.90;;;;;;5067374;28;20078;-72
2023/07/15 05:32:41;;;;;;;5.28;2.28;;;23.10;99.90;;;;;;5073920;28;20783;-73
2023/07/15 05:35:07;;;;;;;5.60;2.60;;;22.90;99.90;;;;;;5051058;28;20044;-73
2023/07/15 05:37:33;;;;;;;11.90;2.60;;;22.80;99.90;;;;;;5051552;28;20038;-72
2023/07/15 05:39:59;;;;;;;7.90;2.45;;;22.70;99.90;;;;;;5070126;28;21704;-73
2023/07/15 05:42:24;;;;;;;8.57;2.47;;;22.50;99.90;;;;;;5067168;28;20040;-72
2023/07/15 05:44:50;;;;;;;8.98;2.58;;;22.40;99.90;;;;;;5073376;28;20055;-72
2023/07/15 05:47:16;;;;;;;8.05;2.47;;;22.30;99.90;;;;;;5072967;28;20135;-73
2023/07/15 05:49:42;;;;;;;7.03;2.35;;;22.20;99.90;;;;;;5074377;28;20083;-72
2023/07/15 05:52:08;;;;;;;7.97;2.40;;;22.10;99.90;;;;;;5067213;28;20052;-71
2023/07/15 05:54:33;;;;;;;6.13;2.50;;;22.00;99.90;;;;;;5066815;28;20607;-72
2023/07/15 05:56:59;;;;;;;8.48;2.33;;;22.00;99.90;;;;;;5066142;28;20745;-72
2023/07/15 05:59:25;;;;;;;9.55;2.28;;;21.90;99.90;;;;;;5060934;28;20554;-72
2023/07/15 06:01:50;;;;;;;9.07;2.70;;;21.80;99.90;;;;;;5061747;28;20591;-73
2023/07/15 06:04:16;;;;;;;6.82;2.30;;;21.80;99.90;;;;;;5061721;28;20036;-72
2023/07/15 06:06:42;;;;;;;6.43;2.25;;;21.80;99.90;;;;;;5067702;28;20088;-72
2023/07/15 06:09:08;;;;;;;6.85;2.22;;;21.80;99.90;;;;;;5048719;28;20143;-71
2023/07/15 06:11:33;;;;;;;4.82;2.25;;;21.80;99.90;;;;;;5069864;28;20040;-73
2023/07/15 06:14:03;;;;;;;6.45;2.53;;;21.80;99.90;;;;;;5065174;28;20087;-72
2023/07/15 06:16:29;;;;;;;6.40;2.63;;;21.80;99.90;;;;;;5065104;28;20032;-71
2023/07/15 06:18:55;;;;;;;5.57;2.22;;;21.80;99.90;;;;;;5068842;28;20036;-71
2023/07/15 06:21:21;;;;;;;7.28;2.60;;;21.80;99.90;;;;;;5065894;28;20044;-71
2023/07/15 06:23:47;;;;;;;7.05;2.10;;;21.90;99.90;;;;;;5057569;28;20175;-71
2023/07/15 06:26:12;;;;;;;8.57;2.53;;;21.80;99.90;;;;;;5060107;28;20040;-71
2023/07/15 06:28:39;;;;;;;5.85;2.10;;;21.80;99.90;;;;;;5064068;28;20055;-72
2023/07/15 06:31:08;;;;;;;4.95;2.38;;;21.90;99.90;;;;;;5058978;28;20831;-72
2023/07/15 06:33:39;;;;;;;7.70;2.10;;;21.80;99.90;;;;;;5066988;28;20135;-71
2023/07/15 06:36:06;;;;;;;6.20;2.38;;;21.90;99.90;;;;;;5064934;28;20049;-72
2023/07/15 06:38:32;;;;;;;7.82;2.42;;;22.00;99.90;;;;;;5071010;28;20044;-71
2023/07/15 06:40:58;;;;;;;8.15;2.22;;;22.10;99.90;;;;;;5064988;28;20400;-71
2023/07/15 06:43:24;;;;;;;7.25;2.70;;;22.10;99.90;;;;;;5053527;28;20071;-72
2023/07/15 06:45:49;;;;;;;7.18;1.95;;;22.20;99.90;;;;;;5068608;28;20109;-71
2023/07/15 06:48:17;;;;;;;7.05;2.70;;;22.20;99.90;;;;;;5065315;28;20032;-73
2023/07/15 06:50:43;;;;;;;8.68;2.47;;;22.20;99.90;;;;;;5071947;28;20079;-73
2023/07/15 06:53:09;;;;;;;8.93;2.42;;;22.20;99.90;;;;;;5052061;28;20539;-74
2023/07/15 06:55:35;;;;;;;6.13;2.28;;;22.20;99.90;;;;;;5073946;28;20040;-75
2023/07/15 06:58:02;;;;;;;6.32;2.40;;;22.30;99.90;;;;;;5067022;28;20797;-75
2023/07/15 07:00:28;;;;;;;8.30;2.85;;;22.30;99.90;;;;;;5073828;28;20569;-71
2023/07/15 07:02:54;;;;;;;8.60;2.30;;;22.30;99.90;;;;;;5068453;28;20047;-72
2023/07/15 07:05:20;;;;;;;8.45;2.50;;;22.30;99.90;;;;;;5071643;28;20104;-73
2023/07/15 07:07:46;;;;;;;8.48;2.45;;;22.40;99.90;;;;;;5071416;28;20044;-74
2023/07/15 07:10:12;;;;;;;4.65;2.17;;;22.40;99.90;;;;;;5071737;28;20047;-73
2023/07/15 07:12:38;;;;;;;7.45;2.42;;;22.40;99.90;;;;;;5071076;28;20068;-74
2023/07/15 07:15:05;;;;;;;10.57;2.60;;;22.50;99.90;;;;;;5076395;28;20044;-75
2023/07/15 07:17:31;;;;;;;6.90;2.20;;;22.50;99.90;;;;;;5074207;28;20040;-74
2023/07/15 07:19:57;;;;;;;7.32;2.40;;;22.60;99.90;;;;;;5061940;28;20524;-75
2023/07/15 07:22:23;;;;;;;7.63;2.42;;;22.70;99.90;;;;;;5073726;28;20396;-74
2023/07/15 07:24:49;;;;;;;7.68;2.33;;;22.70;99.90;;;;;;5070638;28;20036;-73
2023/07/15 07:27:15;;;;;;;7.13;2.30;;;22.70;99.90;;;;;;5071936;28;20050;-74
2023/07/15 07:29:41;;;;;;;5.95;2.20;;;22.70;99.90;;;;;;5075631;28;20056;-76
2023/07/15 07:32:06;;;;;;;7.43;2.25;;;22.80;99.90;;;;;;5069844;28;20044;-74
2023/07/15 07:34:38;;;;;;;6.90;2.28;;;22.90;99.90;;;;;;5067915;28;20138;-75
2023/07/15 07:37:04;;;;;;;6.97;2.05;;;22.90;99.90;;;;;;5069841;28;20044;-74
2023/07/15 07:39:30;;;;;;;5.55;2.00;;;23.00;99.90;;;;;;5073399;28;20044;-74
2023/07/15 07:41:55;;;;;;;6.18;1.95;;;23.10;99.90;;;;;;5072254;28;20121;-73
2023/07/15 07:44:22;;;;;;;5.70;2.00;;;23.20;99.90;;;;;;5073415;28;20120;-73
2023/07/15 07:46:48;;;;;;;7.10;2.53;;;23.30;99.90;;;;;;5067611;28;20048;-76
2023/07/15 07:49:14;;;;;;;9.48;2.50;;;23.40;99.90;;;;;;5070855;28;20043;-74
2023/07/15 07:51:39;;;;;;;7.57;2.00;;;23.40;99.90;;;;;;5069328;28;20278;-74
2023/07/15 07:54:05;;;;;;;5.45;1.80;;;23.50;99.90;;;;;;5058925;28;20048;-73
2023/07/15 07:56:31;;;;;;;6.53;1.95;;;23.50;99.90;;;;;;5080279;28;20048;-74
2023/07/15 07:59:01;;;;;;;6.80;1.75;;;23.60;99.90;;;;;;5069686;28;20856;-75
2023/07/15 08:01:28;;;;;;;8.02;1.90;;;23.60;99.90;;;;;;5073773;28;20040;-75
2023/07/15 08:03:55;;;;;;;4.90;1.67;;;23.70;99.90;;;;;;5072143;28;20058;-74
2023/07/15 08:06:21;;;;;;;4.45;1.77;;;23.80;99.90;;;;;;5074134;28;20072;-75
2023/07/15 08:08:47;;;;;;;4.60;1.70;;;23.90;99.90;;;;;;5070396;28;20800;-75
2023/07/15 08:11:13;;;;;;;5.55;1.70;;;24.00;99.90;;;;;;5067206;28;20044;-76
2023/07/15 08:13:39;;;;;;;4.32;1.70;;;24.10;99.90;;;;;;5071760;28;20142;-74
2023/07/15 08:16:05;;;;;;;5.70;1.63;;;24.20;99.90;;;;;;5052093;28;20117;-74
2023/07/15 08:18:31;;;;;;;6.28;1.80;;;24.20;99.90;;;;;;5070960;28;20052;-73
2023/07/15 08:20:57;;;;;;;5.97;1.35;;;24.30;99.90;;;;;;5069608;28;20043;-73
2023/07/15 08:23:22;;;;;;;7.30;2.45;;;24.40;99.90;;;;;;5052040;28;20548;-72
2023/07/15 08:25:48;;;;;;;5.60;1.55;;;24.40;99.90;;;;;;5069612;28;20040;-71
2023/07/15 08:28:14;;;;;;;5.03;1.65;;;24.40;99.90;;;;;;5069902;28;20358;-72
2023/07/15 08:30:39;;;;;;;7.65;1.40;;;24.30;99.90;;;;;;5070844;28;20036;-73
2023/07/15 08:33:06;;;;;;;3.63;1.50;;;24.30;99.90;;;;;;5064062;28;20052;-71
2023/07/15 08:35:34;;;;;;;4.03;1.70;;;24.20;99.90;;;;;;5073229;28;20048;-72
2023/07/15 08:37:59;;;;;;;5.20;1.77;;;24.20;99.90;;;;;;5049691;28;20080;-74
2023/07/15 08:40:26;;;;;;;3.40;1.10;;;24.20;99.90;;;;;;5052274;28;20450;-73
2023/07/15 08:42:52;;;;;;;6.38;1.60;;;24.30;99.90;;;;;;5068687;28;20080;-74
2023/07/15 08:45:19;;;;;;;3.90;1.58;;;24.40;99.90;;;;;;5069857;28;20184;-75
2023/07/15 08:47:46;;;;;;;4.70;1.65;;;24.50;99.90;;;;;;5074701;28;20547;-74
2023/07/15 08:50:15;;;;;;;5.93;1.50;;;24.60;99.90;;;;;;5069327;28;20051;-74
2023/07/15 08:52:45;;;;;;;3.00;1.40;;;24.60;99.90;;;;;;5053881;28;20475;-73
2023/07/15 08:55:12;;;;;;;6.88;1.73;;;24.80;99.90;;;;;;5053027;28;20810;-73
2023/07/15 08:57:39;;;;;;;4.43;1.23;;;24.80;99.90;;;;;;5073896;28;20064;-74
2023/07/15 09:00:08;;;;;;;3.90;1.20;;;24.90;99.90;;;;;;5051673;28;20727;-72
2023/07/15 09:02:37;;;;;;;4.85;1.20;;;25.00;99.90;;;;;;5054815;28;20044;-73
2023/07/15 09:05:12;;;;;;;1.80;0.80;;;24.90;99.90;;;;;;5072858;28;20824;-72
2023/07/15 09:07:54;;;;;;;2.58;1.08;;;24.80;99.90;;;;;;5076439;28;20098;-74
2023/07/15 09:10:20;;;;;;;2.75;1.08;;;24.80;99.90;;;;;;5051650;28;20129;-74
2023/07/15 09:12:54;;;;;;;4.57;1.13;;;24.80;99.90;;;;;;5072430;28;20122;-74
2023/07/15 09:15:20;;;;;;;2.67;1.17;;;24.70;99.90;;;;;;5054347;28;20037;-74
2023/07/15 09:18:01;;;;;;;4.35;1.30;;;24.70;99.90;;;;;;5067222;28;20201;-74
2023/07/15 09:20:27;;;;;;;5.22;1.20;;;24.60;99.90;;;;;;5068235;28;20051;-74
2023/07/15 09:22:58;;;;;;;4.20;1.23;;;24.60;99.90;;;;;;5073020;28;20036;-73
2023/07/15 09:25:24;;;;;;;5.30;1.40;;;24.50;99.90;;;;;;5067124;28;20102;-73
2023/07/15 09:27:51;;;;;;;3.42;1.10;;;24.50;99.90;;;;;;5054532;28;20056;-74
2023/07/15 09:30:17;;;;;;;6.80;1.30;;;24.50;99.90;;;;;;5050921;28;20039;-74
2023/07/15 09:32:43;;;;;;;3.90;1.30;;;24.50;99.90;;;;;;5046841;28;20041;-72
2023/07/15 09:35:09;;;;;;;2.80;1.15;;;24.60;99.90;;;;;;5073121;28;20492;-71
2023/07/15 09:37:35;;;;;;;4.45;1.65;;;24.60;99.90;;;;;;5065577;28;20416;-75
2023/07/15 09:40:07;;;;;;;2.83;1.20;;;24.70;99.90;;;;;;5077784;28;20052;-74
2023/07/15 09:42:53;;;;;;;4.22;1.20;;;24.70;99.90;;;;;;5068630;28;20154;-73
2023/07/15 09:45:36;;;;;;;2.78;0.93;;;24.70;99.90;;;;;;5065992;28;20083;-73
2023/07/15 09:48:07;;;;;;;4.47;1.10;;;24.60;99.90;;;;;;5063905;28;20055;-72
2023/07/15 09:50:34;;;;;;;3.08;1.20;;;24.60;99.90;;;;;;5068870;28;20037;-73
2023/07/15 09:53:00;;;;;;;5.20;1.27;;;24.60;99.90;;;;;;5067969;28;20052;-72
2023/07/15 09:55:29;;;;;;;3.92;1.33;;;24.60;99.90;;;;;;5052796;28;20040;-73
2023/07/15 09:58:18;;;;;;;5.93;1.20;;;24.60;99.90;;;;;;5065590;28;20657;-74
2023/07/15 10:00:48;;;;;;;4.28;1.40;;;24.60;99.90;;;;;;5070721;28;20036;-73
2023/07/15 10:03:26;;;;;;;;;;;24.60;99.90;;;;;;5064322;28;20059;-74
2023/07/15 10:05:53;;;;;;;4.25;1.45;;;24.60;99.90;;;;;;5065271;28;19928;-73
2023/07/15 10:08:20;;;;;;;3.83;1.20;;;24.60;99.90;;;;;;5068570;28;20394;-74
2023/07/15 10:10:47;;;;;;;2.25;1.13;;;24.70;99.90;;;;;;5049220;28;20044;-74
2023/07/15 10:13:14;;;;;;;4.95;1.58;;;24.70;99.90;;;;;;5070493;28;20043;-74
2023/07/15 10:15:40;;;;;;;4.68;1.35;;;24.80;99.90;;;;;;5071822;28;20044;-73
2023/07/15 10:18:13;;;;;;;3.70;1.40;;;24.80;99.90;;;;;;5074007;28;20151;-74
2023/07/15 10:20:52;;;;;;;4.65;1.40;;;24.90;99.90;;;;;;5072910;28;20047;-73
2023/07/15 10:23:25;;;;;;;6.70;1.58;;;25.00;99.90;;;;;;5068828;28;20059;-72
2023/07/15 10:26:07;;;;;;;5.35;1.75;;;25.00;99.90;;;;;;5076542;28;20052;-74
2023/07/15 10:28:37;;;;;;;6.05;1.50;;;25.10;99.90;;;;;;5082512;28;20056;-73
2023/07/15 10:31:08;;;;;;;;;;;25.10;99.90;;;;;;5063154;28;21586;-73
2023/07/15 10:33:36;;;;;;;2.95;1.30;;;25.20;99.90;;;;;;5084902;28;19924;-73
2023/07/15 10:36:07;;;;;;;4.78;1.38;;;25.30;99.90;;;;;;5074040;28;20059;-74
2023/07/15 10:38:33;;;;;;;4.38;1.60;;;25.40;99.90;;;;;;5078992;28;21724;-75
2023/07/15 10:41:01;;;;;;;4.05;1.33;;;25.40;99.90;;;;;;5076833;28;20105;-74
2023/07/15 10:43:33;;;;;;;8.73;1.63;;;25.50;99.90;;;;;;5075761;28;20090;-75
2023/07/15 10:46:02;;;;;;;6.05;1.77;;;25.50;99.90;;;;;;5079176;28;20520;-75
2023/07/15 10:48:28;;;;;;;4.05;1.90;;;25.60;99.90;;;;;;5084376;28;20032;-73
2023/07/15 10:50:57;;;;;;;4.55;1.33;;;25.60;99.90;;;;;;5076920;28;20048;-73
2023/07/15 10:53:26;;;;;;;4.47;1.58;;;25.70;99.90;;;;;;5074911;28;20055;-74
2023/07/15 10:56:21;;;;;;;4.43;1.60;;;25.80;99.90;;;;;;5080301;28;20040;-75
2023/07/15 10:58:47;;;;;;;4.60;1.77;;;25.80;99.90;;;;;;5059162;28;20059;-74
2023/07/15 11:01:13;;;;;;;3.38;1.63;;;25.80;99.90;;;;;;5076715;28;20042;-74
2023/07/15 11:03:43;;;;;;;6.70;1.92;;;25.70;99.90;;;;;;5076743;28;20123;-73
2023/07/15 11:06:09;;;;;;;4.60;1.63;;;25.70;99.90;;;;;;5080032;28;20040;-74
2023/07/15 11:08:38;;;;;;;4.45;1.40;;;25.60;99.90;;;;;;5073615;28;20049;-73
2023/07/15 11:11:06;;;;;;;5.65;1.65;;;25.60;99.90;;;;;;5081383;28;20048;-74
2023/07/15 11:13:35;;;;;;;5.25;1.70;;;25.70;99.90;;;;;;5080831;28;20044;-74
2023/07/15 11:16:02;;;;;;;4.30;1.33;;;25.80;99.90;;;;;;5080024;28;20052;-74
2023/07/15 11:18:27;;;;;;;5.95;1.70;;;25.80;99.90;;;;;;5077994;28;20052;-74
2023/07/15 11:20:56;;;;;;;4.80;1.85;;;25.90;99.90;;;;;;5076995;28;20044;-75
2023/07/15 11:23:22;;;;;;;5.97;2.08;;;25.90;99.90;;;;;;5076842;28;20060;-74
2023/07/15 11:25:48;;;;;;;4.05;1.88;;;25.90;99.90;;;;;;5074950;28;20058;-74
2023/07/15 11:28:14;;;;;;;3.95;1.85;;;26.00;99.90;;;;;;5081041;28;20430;-74
2023/07/15 11:30:45;;;;;;;4.50;1.90;;;25.90;99.90;;;;;;5055767;28;20104;-74
2023/07/15 11:33:12;;;;;;;13.13;2.85;;;25.90;99.90;;;;;;5072511;28;20059;-74
2023/07/15 11:35:39;;;;;;;6.20;2.47;;;25.90;99.90;;;;;;5071957;28;20135;-74
2023/07/15 11:38:10;;;;;;;5.13;1.58;;;25.80;99.90;;;;;;5077684;28;20040;-73
2023/07/15 11:40:57;;;;;;;6.22;1.80;;;25.80;99.90;;;;;;5079768;28;20401;-73
2023/07/15 11:43:25;;;;;;;4.28;1.85;;;25.80;99.90;;;;;;5075715;28;20052;-74
2023/07/15 11:45:54;;;;;;;5.45;2.22;;;25.80;99.90;;;;;;5074796;28;20036;-73
2023/07/15 11:48:22;;;;;;;5.97;1.90;;;25.80;99.90;;;;;;5073603;28;20404;-72
2023/07/15 11:50:48;;;;;;;6.10;2.10;;;25.90;99.90;;;;;;5078116;28;20043;-74
2023/07/15 11:53:23;;;;;;;4.90;1.55;;;25.90;99.90;;;;;;5081177;28;20396;-75
2023/07/15 11:55:49;;;;;;;5.63;1.90;;;25.90;99.90;;;;;;5080293;28;20040;-71
2023/07/15 11:58:38;;;;;;;6.15;1.92;;;25.90;99.90;;;;;;5051933;28;20039;-73
2023/07/15 12:01:17;;;;;;;4.63;1.80;;;25.90;99.90;;;;;;5064968;28;20949;-72
2023/07/15 12:03:44;;;;;;;4.78;1.75;;;25.90;99.90;;;;;;5081847;28;20044;-71
2023/07/15 12:06:22;;;;;;;3.47;1.60;;;25.90;99.90;;;;;;5069659;28;20048;-74
2023/07/15 12:09:04;;;;;;;4.45;1.80;;;25.90;99.90;;;;;;5078358;28;20119;-75
2023/07/15 12:11:32;;;;;;;4.45;1.67;;;25.80;99.90;;;;;;5059905;28;20112;-75
2023/07/15 12:13:58;;;;;;;3.85;1.52;;;25.80;99.90;;;;;;5088536;28;20044;-75
2023/07/15 12:16:25;;;;;;;6.50;1.85;;;25.80;99.90;;;;;;5077679;28;20127;-75
2023/07/15 12:18:52;;;;;;;4.30;1.70;;;25.70;99.90;;;;;;5072204;28;20509;-75
2023/07/15 12:21:18;;;;;;;5.55;1.88;;;25.60;99.90;;;;;;5079587;28;20047;-74
2023/07/15 12:23:44;;;;;;;4.18;1.83;;;25.60;99.90;;;;;;5078822;28;20101;-74
2023/07/15 12:26:10;;;;;;;3.90;1.75;;;25.60;99.90;;;;;;5075786;28;20852;-74
2023/07/15 12:28:36;;;;;;;5.88;1.90;;;25.60;99.90;;;;;;5068419;28;20043;-75
2023/07/15 12:31:02;;;;;;;6.35;1.60;;;25.70;99.90;;;;;;5075259;28;20067;-74
2023/07/15 12:33:27;;;;;;;4.70;1.80;;;25.70;99.90;;;;;;5074265;28;20135;-76
2023/07/15 12:35:53;;;;;;;5.90;1.77;;;25.70;99.90;;;;;;5068771;28;20041;-75
2023/07/15 12:38:19;;;;;;;7.22;1.80;;;25.70;99.90;;;;;;5054439;28;20044;-75
2023/07/15 12:40:45;;;;;;;5.20;1.70;;;25.70;99.90;;;;;;5077142;28;20127;-74
2023/07/15 12:43:11;;;;;;;8.65;2.33;;;25.70;99.90;;;;;;5074456;28;20083;-74
2023/07/15 12:45:38;;;;;;;6.15;1.70;;;25.70;99.90;;;;;;5051102;28;20052;-74
2023/07/15 12:48:04;;;;;;;5.20;1.80;;;25.80;99.90;;;;;;5062521;28;20063;-75
2023/07/15 12:50:30;;;;;;;3.58;1.40;;;25.80;99.90;;;;;;5070952;28;20925;-74